createdAt,value
2022-11-14T00:00:03.152Z,6.00
2022-11-14T00:02:49.647Z,6.00
2022-11-14T00:05:41.138Z,6.00
2022-11-14T00:08:29.075Z,6.00
2022-11-14T00:11:15.599Z,6.00
2022-11-14T00:14:02.268Z,6.00
2022-11-14T00:16:49.122Z,6.00
2022-11-14T00:19:35.746Z,6.00
2022-11-14T00:22:22.290Z,6.10
2022-11-14T00:25:11.692Z,6.10
2022-11-14T00:27:59.091Z,6.10
2022-11-14T00:30:48.334Z,6.10
2022-11-14T00:33:34.825Z,6.10
2022-11-14T00:36:21.400Z,6.10
2022-11-14T00:39:07.992Z,6.10
2022-11-14T00:41:55.874Z,6.10
2022-11-14T00:44:42.239Z,6.10
2022-11-14T00:47:28.685Z,6.10
2022-11-14T00:50:15.057Z,6.10
2022-11-14T00:53:01.289Z,6.00
2022-11-14T00:55:47.651Z,6.00
2022-11-14T00:58:35.339Z,6.00
2022-11-14T01:01:21.742Z,6.00
2022-11-14T01:04:08.417Z,5.90
2022-11-14T01:06:54.705Z,5.90
2022-11-14T01:09:41.027Z,5.90
2022-11-14T01:12:27.314Z,5.90
2022-11-14T01:15:15.119Z,5.90
2022-11-14T01:18:01.674Z,5.90
2022-11-14T01:20:49.800Z,5.90
2022-11-14T01:23:36.518Z,5.80
2022-11-14T01:26:23.040Z,5.80
2022-11-14T01:29:09.228Z,5.80
2022-11-14T01:31:57.306Z,5.80
2022-11-14T01:34:43.800Z,5.90
2022-11-14T01:37:30.112Z,5.90
2022-11-14T01:40:17.215Z,5.90
2022-11-14T01:43:25.672Z,5.90
2022-11-14T01:46:15.395Z,5.80
2022-11-14T01:49:07.270Z,5.80
2022-11-14T01:52:00.047Z,5.80
2022-11-14T01:54:49.418Z,5.80
2022-11-14T01:57:39.545Z,5.80
2022-11-14T02:00:25.825Z,5.80
2022-11-14T02:03:14.354Z,5.80
2022-11-14T02:06:04.127Z,5.80
2022-11-14T02:08:52.525Z,5.80
2022-11-14T02:11:42.896Z,5.80
2022-11-14T02:14:30.837Z,5.90
2022-11-14T02:17:34.228Z,5.80
2022-11-14T02:20:24.307Z,5.80
2022-11-14T02:23:12.063Z,5.80
2022-11-14T02:25:58.528Z,5.80
2022-11-14T02:28:45.002Z,5.80
2022-11-14T02:31:31.459Z,5.80
2022-11-14T02:34:19.992Z,5.80
2022-11-14T02:37:08.609Z,5.80
2022-11-14T02:39:55.368Z,5.80
2022-11-14T02:42:41.784Z,5.80
2022-11-14T02:45:28.594Z,5.80
2022-11-14T02:48:15.473Z,5.80
2022-11-14T02:51:02.564Z,5.90
2022-11-14T02:53:50.541Z,5.90
2022-11-14T02:56:37.315Z,5.90
2022-11-14T02:59:23.845Z,5.90
2022-11-14T03:02:10.363Z,5.90
2022-11-14T03:04:56.722Z,5.90
2022-11-14T03:07:43.046Z,5.90
2022-11-14T03:10:30.877Z,5.90
2022-11-14T03:13:17.536Z,6.00
2022-11-14T03:16:08.216Z,5.90
2022-11-14T03:18:54.694Z,5.90
2022-11-14T03:21:41.287Z,5.90
2022-11-14T03:24:27.529Z,5.90
2022-11-14T03:27:15.428Z,5.90
2022-11-14T03:30:01.813Z,5.90
2022-11-14T03:32:48.216Z,5.90
2022-11-14T03:35:34.667Z,5.90
2022-11-14T03:38:22.982Z,5.90
2022-11-14T03:41:09.373Z,5.90
2022-11-14T03:43:57.095Z,5.90
2022-11-14T03:46:43.402Z,5.90
2022-11-14T03:49:29.748Z,5.90
2022-11-14T03:52:16.286Z,5.80
2022-11-14T03:55:02.686Z,5.80
2022-11-14T03:57:48.967Z,5.90
2022-11-14T04:00:36.846Z,5.90
2022-11-14T04:03:23.279Z,5.80
2022-11-14T04:06:10.107Z,5.80
2022-11-14T04:08:58.459Z,5.80
2022-11-14T04:11:44.868Z,5.90
2022-11-14T04:14:31.127Z,5.80
2022-11-14T04:17:18.927Z,5.80
2022-11-14T04:20:06.063Z,5.80
2022-11-14T04:22:52.795Z,5.80
2022-11-14T04:25:39.220Z,5.80
2022-11-14T04:28:26.666Z,5.80
2022-11-14T04:31:13.112Z,5.80
2022-11-14T04:34:00.991Z,5.80
2022-11-14T04:36:47.625Z,5.80
2022-11-14T04:39:33.820Z,5.80
2022-11-14T04:42:20.287Z,5.90
2022-11-14T04:45:08.075Z,5.90
2022-11-14T04:47:54.257Z,5.90
2022-11-14T04:50:41.842Z,5.80
2022-11-14T04:53:28.249Z,5.80
2022-11-14T04:56:14.525Z,5.90
2022-11-14T04:59:00.776Z,5.80
2022-11-14T05:01:47.269Z,5.90
2022-11-14T05:04:33.416Z,5.80
2022-11-14T05:07:21.092Z,5.80
2022-11-14T05:10:08.593Z,5.80
2022-11-14T05:12:55.443Z,5.80
2022-11-14T05:15:41.978Z,5.80
2022-11-14T05:18:28.959Z,5.80
2022-11-14T05:21:16.244Z,5.80
2022-11-14T05:24:03.782Z,5.80
2022-11-14T05:26:50.286Z,5.90
2022-11-14T05:29:36.551Z,5.90
2022-11-14T05:32:22.902Z,5.90
2022-11-14T05:35:10.065Z,5.90
2022-11-14T05:37:59.987Z,5.90
2022-11-14T05:40:47.848Z,5.90
2022-11-14T05:43:34.183Z,5.90
2022-11-14T05:46:21.077Z,5.90
2022-11-14T05:49:07.629Z,6.00
2022-11-14T05:51:53.905Z,5.90
2022-11-14T05:54:40.369Z,6.00
2022-11-14T05:57:28.109Z,6.00
2022-11-14T06:00:15.415Z,6.00
2022-11-14T06:03:01.727Z,6.10
2022-11-14T06:05:48.131Z,6.20
2022-11-14T06:08:35.232Z,6.20
2022-11-14T06:11:22.659Z,6.20
2022-11-14T06:14:11.662Z,6.20
2022-11-14T06:16:58.217Z,6.30
2022-11-14T06:19:44.468Z,6.30
2022-11-14T06:22:31.070Z,6.30
2022-11-14T06:25:17.430Z,6.30
2022-11-14T06:28:04.106Z,6.30
2022-11-14T06:30:52.037Z,6.30
2022-11-14T06:33:38.701Z,6.30
2022-11-14T06:36:25.034Z,6.30
2022-11-14T06:39:11.459Z,6.30
2022-11-14T06:41:57.772Z,6.30
2022-11-14T06:44:44.011Z,6.30
2022-11-14T06:47:31.879Z,6.20
2022-11-14T06:50:18.120Z,6.30
2022-11-14T06:53:04.822Z,6.30
2022-11-14T06:55:56.360Z,6.30
2022-11-14T06:58:44.653Z,6.30
2022-11-14T07:01:31.215Z,6.30
2022-11-14T07:04:19.180Z,6.30
2022-11-14T07:07:05.660Z,6.30
2022-11-14T07:09:54.267Z,6.30
2022-11-14T07:12:40.846Z,6.30
2022-11-14T07:15:27.107Z,6.30
2022-11-14T07:18:13.634Z,6.40
2022-11-14T07:21:04.212Z,6.40
2022-11-14T07:23:50.627Z,6.40
2022-11-14T07:26:37.098Z,6.40
2022-11-14T07:29:23.369Z,6.40
2022-11-14T07:32:09.644Z,6.40
2022-11-14T07:35:01.715Z,6.50
2022-11-14T07:37:49.844Z,6.50
2022-11-14T07:40:36.860Z,6.50
2022-11-14T07:43:23.636Z,6.60
2022-11-14T07:46:13.646Z,6.60
2022-11-14T07:49:00.277Z,6.60
2022-11-14T07:51:46.685Z,6.60
2022-11-14T07:54:34.337Z,6.60
2022-11-14T07:57:20.727Z,6.70
2022-11-14T08:00:08.331Z,6.70
2022-11-14T08:02:54.598Z,6.80
2022-11-14T08:05:41.036Z,6.80
2022-11-14T08:08:27.705Z,6.80
2022-11-14T08:11:31.636Z,6.90
2022-11-14T08:14:21.309Z,6.80
2022-11-14T08:17:07.982Z,6.90
2022-11-14T08:19:54.469Z,6.90
2022-11-14T08:22:40.884Z,6.90
2022-11-14T08:25:27.323Z,6.90
2022-11-14T08:28:15.254Z,6.90
2022-11-14T08:31:02.298Z,7.00
2022-11-14T08:33:50.231Z,7.00
2022-11-14T08:36:37.013Z,7.00
2022-11-14T08:39:23.463Z,7.00
2022-11-14T08:42:09.917Z,7.10
2022-11-14T08:44:57.637Z,7.10
2022-11-14T08:47:44.139Z,7.10
2022-11-14T08:50:31.445Z,7.20
2022-11-14T08:53:18.360Z,7.20
2022-11-14T08:56:05.733Z,7.30
2022-11-14T08:58:52.072Z,7.30
2022-11-14T09:01:40.143Z,7.30
2022-11-14T09:04:26.855Z,7.30
2022-11-14T09:07:13.199Z,7.40
2022-11-14T09:09:59.973Z,7.40
2022-11-14T09:12:46.425Z,7.40
2022-11-14T09:15:33.742Z,7.40
2022-11-14T09:18:21.446Z,7.40
2022-11-14T09:21:09.520Z,7.40
2022-11-14T09:24:00.549Z,7.50
2022-11-14T09:26:54.963Z,7.60
2022-11-14T09:29:43.054Z,7.60
2022-11-14T09:32:29.374Z,7.70
2022-11-14T09:35:18.363Z,7.70
2022-11-14T09:38:06.561Z,7.80
2022-11-14T09:41:03.359Z,7.90
2022-11-14T09:44:09.252Z,7.90
2022-11-14T09:46:59.966Z,7.90
2022-11-14T09:49:47.578Z,8.00
2022-11-14T09:52:39.264Z,8.10
2022-11-14T09:55:36.294Z,8.10
2022-11-14T09:58:23.868Z,8.10
2022-11-14T10:01:17.415Z,8.10
2022-11-14T10:04:18.772Z,8.20
2022-11-14T10:07:17.645Z,8.20
2022-11-14T10:10:14.759Z,8.20
2022-11-14T10:13:09.848Z,8.30
2022-11-14T10:16:05.955Z,8.30
2022-11-14T10:19:04.705Z,8.30
2022-11-14T10:22:22.430Z,8.30
2022-11-14T10:25:22.415Z,8.20
2022-11-14T10:28:21.900Z,8.20
2022-11-14T10:31:17.584Z,8.20
2022-11-14T10:34:10.104Z,8.20
2022-11-14T10:37:04.080Z,8.20
2022-11-14T10:39:53.727Z,8.10
2022-11-14T10:42:45.254Z,8.20
2022-11-14T10:45:36.626Z,8.20
2022-11-14T10:48:32.172Z,8.20
2022-11-14T10:51:25.975Z,8.20
2022-11-14T10:54:18.620Z,8.20
2022-11-14T10:57:14.286Z,8.20
2022-11-14T11:00:02.095Z,8.20
2022-11-14T11:02:51.671Z,8.30
2022-11-14T11:05:47.451Z,8.30
2022-11-14T11:08:59.374Z,8.30
2022-11-14T11:11:55.039Z,8.30
2022-11-14T11:14:41.443Z,8.30
2022-11-14T11:17:35.893Z,8.30
2022-11-14T11:20:30.567Z,8.30
2022-11-14T11:23:20.953Z,8.20
2022-11-14T11:26:09.601Z,8.20
2022-11-14T11:29:05.632Z,8.10
2022-11-14T11:31:54.145Z,8.10
2022-11-14T11:34:41.979Z,8.10
2022-11-14T11:37:31.605Z,8.10
2022-11-14T11:40:21.238Z,8.10
2022-11-14T11:46:31.117Z,8.50
2022-11-14T11:49:25.658Z,8.60
2022-11-14T11:52:19.128Z,8.60
2022-11-14T11:55:17.684Z,8.70
2022-11-14T11:58:07.501Z,8.70
2022-11-14T12:00:55.813Z,8.70
2022-11-14T12:03:46.099Z,8.80
2022-11-14T12:06:41.868Z,8.80
2022-11-14T12:10:08.336Z,8.80
2022-11-14T12:13:01.479Z,8.80
2022-11-14T12:15:58.679Z,8.90
2022-11-14T12:19:00.687Z,8.80
2022-11-14T12:22:08.686Z,8.80
2022-11-14T12:25:14.752Z,8.80
2022-11-14T12:28:15.040Z,8.80
2022-11-14T12:31:05.117Z,8.70
2022-11-14T12:33:58.517Z,8.70
2022-11-14T12:36:46.411Z,8.70
2022-11-14T12:39:33.248Z,8.70
2022-11-14T12:42:22.907Z,8.80
2022-11-14T12:45:42.824Z,8.80
2022-11-14T12:48:39.808Z,9.00
2022-11-14T12:51:53.179Z,9.00
2022-11-14T12:54:46.851Z,9.10
2022-11-14T12:57:49.070Z,9.10
2022-11-14T13:00:39.141Z,9.10
2022-11-14T13:03:38.361Z,9.10
2022-11-14T13:06:32.203Z,9.00
2022-11-14T13:09:42.700Z,9.00
2022-11-14T13:12:49.589Z,9.00
2022-11-14T13:16:06.649Z,9.20
2022-11-14T13:19:14.074Z,9.40
2022-11-14T13:22:39.696Z,9.60
2022-11-14T13:25:26.492Z,9.80
2022-11-14T13:28:45.042Z,10.00
2022-11-14T13:31:48.291Z,10.10
2022-11-14T13:34:42.849Z,10.20
2022-11-14T13:37:44.950Z,10.30
2022-11-14T13:40:37.778Z,10.40
2022-11-14T13:43:34.381Z,10.30
2022-11-14T13:46:34.526Z,10.40
2022-11-14T13:49:39.242Z,10.40
2022-11-14T13:52:29.425Z,10.30
2022-11-14T13:55:23.732Z,10.30
2022-11-14T13:58:26.199Z,10.20
2022-11-14T14:01:28.808Z,10.20
2022-11-14T14:04:31.807Z,10.10
2022-11-14T14:07:27.325Z,10.10
2022-11-14T14:10:26.412Z,10.00
2022-11-14T14:13:27.431Z,10.00
2022-11-14T14:16:19.194Z,10.00
2022-11-14T14:19:15.797Z,9.90
2022-11-14T14:22:09.558Z,9.90
2022-11-14T14:25:01.823Z,9.90
2022-11-14T14:28:00.554Z,9.90
2022-11-14T14:31:11.590Z,9.80
2022-11-14T14:33:58.179Z,9.80
2022-11-14T14:36:51.267Z,9.80
2022-11-14T14:39:39.090Z,9.70
2022-11-14T14:42:29.500Z,9.70
2022-11-14T14:45:20.498Z,9.70
2022-11-14T14:48:13.709Z,9.80
2022-11-14T14:51:02.824Z,9.80
2022-11-14T14:53:54.078Z,9.80
2022-11-14T14:56:53.857Z,9.80
2022-11-14T14:59:42.095Z,9.90
2022-11-14T15:02:29.873Z,9.90
2022-11-14T15:05:23.821Z,9.90
2022-11-14T15:08:14.801Z,9.90
2022-11-14T15:11:02.575Z,9.90
2022-11-14T15:13:52.855Z,9.90
2022-11-14T15:16:39.897Z,9.80
2022-11-14T15:19:29.898Z,9.90
2022-11-14T15:22:29.111Z,9.80
2022-11-14T15:25:21.223Z,9.90
2022-11-14T15:28:16.504Z,9.90
2022-11-14T15:31:05.722Z,9.90
2022-11-14T15:34:03.503Z,9.90
2022-11-14T15:37:23.896Z,9.80
2022-11-14T15:40:18.980Z,9.80
2022-11-14T15:43:39.230Z,9.80
2022-11-14T15:46:47.025Z,9.80
2022-11-14T15:49:33.431Z,9.70
2022-11-14T15:52:23.986Z,9.80
2022-11-14T15:55:15.249Z,9.70
2022-11-14T15:58:26.430Z,9.80
2022-11-14T16:01:17.738Z,9.80
2022-11-14T16:04:05.963Z,9.80
2022-11-14T16:06:52.246Z,9.80
2022-11-14T16:09:38.712Z,9.80
2022-11-14T16:12:25.192Z,9.90
2022-11-14T16:15:12.186Z,9.80
2022-11-14T16:17:58.669Z,9.90
2022-11-14T16:20:46.410Z,9.90
2022-11-14T16:23:33.275Z,9.90
2022-11-14T16:26:20.263Z,9.80
2022-11-14T16:29:07.777Z,9.80
2022-11-14T16:31:55.161Z,9.80
2022-11-14T16:34:41.951Z,9.90
2022-11-14T16:37:29.574Z,9.80
2022-11-14T16:40:19.251Z,9.80
2022-11-14T16:43:06.006Z,9.80
2022-11-14T16:45:52.300Z,9.80
2022-11-14T16:48:38.475Z,9.70
2022-11-14T16:54:33.259Z,9.70
2022-11-14T16:57:19.981Z,9.70
2022-11-14T17:00:08.247Z,9.60
2022-11-14T17:02:54.909Z,9.60
2022-11-14T17:05:44.028Z,9.60
2022-11-14T17:08:30.409Z,9.60
2022-11-14T17:11:18.072Z,9.60
2022-11-14T17:14:04.728Z,9.60
2022-11-14T17:16:51.098Z,9.60
2022-11-14T17:19:38.932Z,9.70
2022-11-14T17:22:25.417Z,9.70
2022-11-14T17:25:12.591Z,9.70
2022-11-14T17:28:00.256Z,9.80
2022-11-14T17:30:46.630Z,9.80
2022-11-14T17:33:33.318Z,9.90
2022-11-14T17:36:20.515Z,10.00
2022-11-14T17:39:07.188Z,10.00
2022-11-14T17:41:53.886Z,10.00
2022-11-14T17:44:41.824Z,10.10
2022-11-14T17:47:28.446Z,10.10
2022-11-14T17:50:15.041Z,10.10
2022-11-14T17:53:01.221Z,10.00
2022-11-14T17:55:47.737Z,10.00
2022-11-14T17:58:34.828Z,10.00
2022-11-14T18:01:24.070Z,10.00
2022-11-14T18:04:11.697Z,10.00
2022-11-14T18:06:58.606Z,10.10
2022-11-14T18:09:45.207Z,10.10
2022-11-14T18:12:31.542Z,10.20
2022-11-14T18:15:18.234Z,10.20
2022-11-14T18:18:06.637Z,10.30
2022-11-14T18:20:53.261Z,10.30
2022-11-14T18:23:39.736Z,10.30
2022-11-14T18:26:28.569Z,10.40
2022-11-14T18:29:15.602Z,10.40
2022-11-14T18:32:02.142Z,10.40
2022-11-14T18:34:49.864Z,10.40
2022-11-14T18:37:36.202Z,10.50
2022-11-14T18:40:22.560Z,10.40
2022-11-14T18:43:09.374Z,10.50
2022-11-14T18:45:56.001Z,10.50
2022-11-14T18:48:43.968Z,10.60
2022-11-14T18:51:33.111Z,10.70
2022-11-14T18:54:19.495Z,10.70
2022-11-14T18:57:05.842Z,10.70
2022-11-14T18:59:52.175Z,10.80
2022-11-14T19:02:38.535Z,10.80
2022-11-14T19:05:25.241Z,10.80
2022-11-14T19:08:12.987Z,10.80
2022-11-14T19:11:02.526Z,10.70
2022-11-14T19:13:48.894Z,10.70
2022-11-14T19:16:36.113Z,10.70
2022-11-14T19:19:22.696Z,10.60
2022-11-14T19:22:08.992Z,10.60
2022-11-14T19:24:57.807Z,10.60
2022-11-14T19:27:44.215Z,10.60
2022-11-14T19:30:30.580Z,10.60
2022-11-14T19:33:17.069Z,10.70
2022-11-14T19:36:08.566Z,10.70
2022-11-14T19:38:55.621Z,10.70
2022-11-14T19:41:43.651Z,10.80
2022-11-14T19:44:30.206Z,10.90
2022-11-14T19:47:16.657Z,11.00
2022-11-14T19:50:02.944Z,11.00
2022-11-14T19:52:49.155Z,11.00
2022-11-14T19:55:35.779Z,11.00
2022-11-14T19:58:23.788Z,11.00
2022-11-14T20:01:12.524Z,11.00
2022-11-14T20:04:00.691Z,11.00
2022-11-14T20:06:47.127Z,11.00
2022-11-14T20:09:33.468Z,11.00
2022-11-14T20:12:19.884Z,11.00
2022-11-14T20:15:08.821Z,11.00
2022-11-14T20:17:55.187Z,11.00
2022-11-14T20:20:41.705Z,11.10
2022-11-14T20:23:28.913Z,11.00
2022-11-14T20:26:16.974Z,11.10
2022-11-14T20:29:06.747Z,11.10
2022-11-14T20:31:54.888Z,11.10
2022-11-14T20:34:41.625Z,11.20
2022-11-14T20:37:28.109Z,11.10
2022-11-14T20:40:14.683Z,11.10
2022-11-14T20:43:01.413Z,11.20
2022-11-14T20:45:56.501Z,11.10
2022-11-14T20:48:45.372Z,11.00
2022-11-14T20:51:32.002Z,11.00
2022-11-14T20:54:18.488Z,10.90
2022-11-14T20:57:04.953Z,10.80
2022-11-14T20:59:51.624Z,10.80
2022-11-14T21:02:38.150Z,10.80
2022-11-14T21:05:25.986Z,10.70
2022-11-14T21:08:12.808Z,10.70
2022-11-14T21:11:01.425Z,10.70
2022-11-14T21:13:59.779Z,10.60
2022-11-14T21:16:46.526Z,10.60
2022-11-14T21:19:32.841Z,10.60
2022-11-14T21:22:20.449Z,10.60
2022-11-14T21:25:07.824Z,10.60
2022-11-14T21:27:54.398Z,10.60
2022-11-14T21:30:40.764Z,10.60
2022-11-14T21:33:27.858Z,10.50
2022-11-14T21:36:43.200Z,10.60
2022-11-14T21:39:23.352Z,10.60
2022-11-14T21:42:13.028Z,10.60
2022-11-14T21:45:04.061Z,10.60
2022-11-14T21:47:50.573Z,10.60
2022-11-14T21:50:37.142Z,10.60
2022-11-14T21:53:23.688Z,10.50
2022-11-14T21:56:13.793Z,10.50
2022-11-14T21:59:14.234Z,10.60
2022-11-14T22:02:18.333Z,10.50
2022-11-14T22:05:05.330Z,10.60
2022-11-14T22:07:51.678Z,10.70
2022-11-14T22:10:38.110Z,10.70
2022-11-14T22:13:25.758Z,10.70
2022-11-14T22:16:15.982Z,10.70
2022-11-14T22:19:05.706Z,10.70
2022-11-14T22:21:52.241Z,10.80
2022-11-14T22:24:38.577Z,10.70
2022-11-14T22:27:24.801Z,10.80
2022-11-14T22:30:14.045Z,10.80
2022-11-14T22:33:01.085Z,10.80
2022-11-14T22:35:47.417Z,10.80
2022-11-14T22:38:35.634Z,10.80
2022-11-14T22:41:28.959Z,10.80
2022-11-14T22:44:18.070Z,10.80
2022-11-14T22:47:05.846Z,10.80
2022-11-14T22:49:52.507Z,10.80
2022-11-14T22:52:38.856Z,10.80
2022-11-14T22:55:25.185Z,10.90
2022-11-14T22:58:11.784Z,10.80
2022-11-14T23:00:58.690Z,10.90
2022-11-14T23:03:48.078Z,10.80
2022-11-14T23:06:35.686Z,10.90
2022-11-14T23:09:22.238Z,10.90
2022-11-14T23:12:08.774Z,11.00
2022-11-14T23:14:55.305Z,10.90
2022-11-14T23:17:41.703Z,11.00
2022-11-14T23:20:29.618Z,10.90
2022-11-14T23:23:16.444Z,10.90
2022-11-14T23:26:05.277Z,10.90
2022-11-14T23:28:51.847Z,10.90
2022-11-14T23:31:38.186Z,10.90
2022-11-14T23:34:24.936Z,10.90
2022-11-14T23:37:12.934Z,10.90
2022-11-14T23:39:59.686Z,10.90
2022-11-14T23:42:46.055Z,10.90
2022-11-14T23:45:32.378Z,10.90
2022-11-14T23:48:19.732Z,10.90
2022-11-14T23:51:06.631Z,10.90
2022-11-14T23:53:54.581Z,11.00
2022-11-14T23:56:40.882Z,11.00
2022-11-14T23:59:27.365Z,11.00
